sensor_id;sensor_type;location;lat;lon;timestamp;temperature;humidity
67942;SHT31;54731;42.600;23.476;2022-11-11T00:01:16;9.57;78.87
67942;SHT31;54731;42.600;23.476;2022-11-11T00:03:42;9.59;78.97
67942;SHT31;54731;42.600;23.476;2022-11-11T00:06:13;9.58;78.92
67942;SHT31;54731;42.600;23.476;2022-11-11T00:08:39;9.61;78.80
67942;SHT31;54731;42.600;23.476;2022-11-11T00:11:07;9.58;78.98
67942;SHT31;54731;42.600;23.476;2022-11-11T00:13:33;9.55;78.95
67942;SHT31;54731;42.600;23.476;2022-11-11T00:16:25;9.52;79.10
67942;SHT31;54731;42.600;23.476;2022-11-11T00:18:51;9.47;79.20
67942;SHT31;54731;42.600;23.476;2022-11-11T00:21:16;9.49;79.18
67942;SHT31;54731;42.600;23.476;2022-11-11T00:23:41;9.49;79.30
67942;SHT31;54731;42.600;23.476;2022-11-11T00:26:08;9.41;79.51
67942;SHT31;54731;42.600;23.476;2022-11-11T00:28:34;9.45;79.65
67942;SHT31;54731;42.600;23.476;2022-11-11T00:31:04;9.48;79.66
67942;SHT31;54731;42.600;23.476;2022-11-11T00:33:31;9.49;79.76
67942;SHT31;54731;42.600;23.476;2022-11-11T00:35:56;9.55;79.66
67942;SHT31;54731;42.600;23.476;2022-11-11T00:38:22;9.58;79.73
67942;SHT31;54731;42.600;23.476;2022-11-11T00:40:47;9.61;79.51
67942;SHT31;54731;42.600;23.476;2022-11-11T00:43:12;9.65;79.47
67942;SHT31;54731;42.600;23.476;2022-11-11T00:45:37;9.69;79.33
67942;SHT31;54731;42.600;23.476;2022-11-11T00:48:03;9.67;79.23
67942;SHT31;54731;42.600;23.476;2022-11-11T00:50:28;9.72;79.11
67942;SHT31;54731;42.600;23.476;2022-11-11T00:52:54;9.67;79.08
67942;SHT31;54731;42.600;23.476;2022-11-11T00:55:19;9.68;79.20
67942;SHT31;54731;42.600;23.476;2022-11-11T00:57:44;9.62;79.26
67942;SHT31;54731;42.600;23.476;2022-11-11T01:00:10;9.55;79.61
67942;SHT31;54731;42.600;23.476;2022-11-11T01:02:36;9.52;79.71
67942;SHT31;54731;42.600;23.476;2022-11-11T01:05:01;9.58;79.64
67942;SHT31;54731;42.600;23.476;2022-11-11T01:07:26;9.54;79.79
67942;SHT31;54731;42.600;23.476;2022-11-11T01:09:52;9.55;79.74
67942;SHT31;54731;42.600;23.476;2022-11-11T01:12:17;9.58;79.62
67942;SHT31;54731;42.600;23.476;2022-11-11T01:14:42;9.58;79.64
67942;SHT31;54731;42.600;23.476;2022-11-11T01:17:08;9.59;79.51
67942;SHT31;54731;42.600;23.476;2022-11-11T01:19:33;9.55;79.75
67942;SHT31;54731;42.600;23.476;2022-11-11T01:21:58;9.55;79.63
67942;SHT31;54731;42.600;23.476;2022-11-11T01:24:24;9.52;79.75
67942;SHT31;54731;42.600;23.476;2022-11-11T01:26:49;9.49;79.98
67942;SHT31;54731;42.600;23.476;2022-11-11T01:29:15;9.51;80.00
67942;SHT31;54731;42.600;23.476;2022-11-11T01:31:40;9.48;80.04
67942;SHT31;54731;42.600;23.476;2022-11-11T01:34:05;9.42;80.20
67942;SHT31;54731;42.600;23.476;2022-11-11T01:36:31;9.45;80.17
67942;SHT31;54731;42.600;23.476;2022-11-11T01:38:58;9.45;80.28
67942;SHT31;54731;42.600;23.476;2022-11-11T01:41:29;9.45;80.46
67942;SHT31;54731;42.600;23.476;2022-11-11T01:43:54;9.42;80.45
67942;SHT31;54731;42.600;23.476;2022-11-11T01:46:26;9.38;80.66
67942;SHT31;54731;42.600;23.476;2022-11-11T01:52:32;9.37;80.81
67942;SHT31;54731;42.600;23.476;2022-11-11T01:55:19;9.35;80.79
67942;SHT31;54731;42.600;23.476;2022-11-11T01:58:06;9.39;80.69
67942;SHT31;54731;42.600;23.476;2022-11-11T02:00:33;9.42;80.60
67942;SHT31;54731;42.600;23.476;2022-11-11T02:03:04;9.42;80.48
67942;SHT31;54731;42.600;23.476;2022-11-11T02:05:31;9.28;80.77
67942;SHT31;54731;42.600;23.476;2022-11-11T02:07:58;9.34;80.68
67942;SHT31;54731;42.600;23.476;2022-11-11T02:10:26;9.34;80.69
67942;SHT31;54731;42.600;23.476;2022-11-11T02:12:52;9.35;80.68
67942;SHT31;54731;42.600;23.476;2022-11-11T02:15:17;9.35;80.92
67942;SHT31;54731;42.600;23.476;2022-11-11T02:17:45;9.31;80.79
67942;SHT31;54731;42.600;23.476;2022-11-11T02:20:13;9.28;81.10
67942;SHT31;54731;42.600;23.476;2022-11-11T02:23:06;9.26;81.21
67942;SHT31;54731;42.600;23.476;2022-11-11T02:25:36;9.28;81.23
67942;SHT31;54731;42.600;23.476;2022-11-11T02:28:04;9.21;81.17
67942;SHT31;54731;42.600;23.476;2022-11-11T02:30:30;9.21;81.55
67942;SHT31;54731;42.600;23.476;2022-11-11T02:32:55;9.13;81.73
67942;SHT31;54731;42.600;23.476;2022-11-11T02:35:24;9.13;81.77
67942;SHT31;54731;42.600;23.476;2022-11-11T02:37:51;9.10;81.87
67942;SHT31;54731;42.600;23.476;2022-11-11T02:40:31;9.07;82.20
67942;SHT31;54731;42.600;23.476;2022-11-11T02:42:57;9.08;82.30
67942;SHT31;54731;42.600;23.476;2022-11-11T02:45:22;9.07;82.28
67942;SHT31;54731;42.600;23.476;2022-11-11T02:47:48;9.04;82.68
67942;SHT31;54731;42.600;23.476;2022-11-11T02:50:13;9.03;82.50
67942;SHT31;54731;42.600;23.476;2022-11-11T02:52:39;9.00;82.71
67942;SHT31;54731;42.600;23.476;2022-11-11T02:55:04;9.00;82.99
67942;SHT31;54731;42.600;23.476;2022-11-11T02:57:30;9.01;83.14
67942;SHT31;54731;42.600;23.476;2022-11-11T02:59:58;9.00;83.08
67942;SHT31;54731;42.600;23.476;2022-11-11T03:02:23;9.01;83.36
67942;SHT31;54731;42.600;23.476;2022-11-11T03:04:49;9.03;83.38
67942;SHT31;54731;42.600;23.476;2022-11-11T03:07:14;9.03;83.41
67942;SHT31;54731;42.600;23.476;2022-11-11T03:09:39;9.04;83.40
67942;SHT31;54731;42.600;23.476;2022-11-11T03:12:05;9.07;83.36
67942;SHT31;54731;42.600;23.476;2022-11-11T03:14:30;9.07;83.39
67942;SHT31;54731;42.600;23.476;2022-11-11T03:16:55;9.06;83.50
67942;SHT31;54731;42.600;23.476;2022-11-11T03:19:20;9.07;83.47
67942;SHT31;54731;42.600;23.476;2022-11-11T03:21:46;9.11;83.51
67942;SHT31;54731;42.600;23.476;2022-11-11T03:24:11;9.11;83.56
67942;SHT31;54731;42.600;23.476;2022-11-11T03:26:36;9.13;83.62
67942;SHT31;54731;42.600;23.476;2022-11-11T03:29:02;9.11;83.73
67942;SHT31;54731;42.600;23.476;2022-11-11T03:31:28;9.17;83.53
67942;SHT31;54731;42.600;23.476;2022-11-11T03:33:53;9.21;83.42
67942;SHT31;54731;42.600;23.476;2022-11-11T03:36:19;9.28;83.20
67942;SHT31;54731;42.600;23.476;2022-11-11T03:38:44;9.28;83.21
67942;SHT31;54731;42.600;23.476;2022-11-11T03:41:09;9.24;83.30
67942;SHT31;54731;42.600;23.476;2022-11-11T03:43:35;9.27;83.34
67942;SHT31;54731;42.600;23.476;2022-11-11T03:46:02;9.31;83.43
67942;SHT31;54731;42.600;23.476;2022-11-11T03:48:30;9.37;83.62
67942;SHT31;54731;42.600;23.476;2022-11-11T03:50:55;9.38;83.62
67942;SHT31;54731;42.600;23.476;2022-11-11T03:53:21;9.38;83.86
67942;SHT31;54731;42.600;23.476;2022-11-11T03:55:47;9.41;83.67
67942;SHT31;54731;42.600;23.476;2022-11-11T03:58:12;9.34;83.87
67942;SHT31;54731;42.600;23.476;2022-11-11T04:00:38;9.34;83.94
67942;SHT31;54731;42.600;23.476;2022-11-11T04:03:12;9.37;83.86
67942;SHT31;54731;42.600;23.476;2022-11-11T04:05:37;9.48;84.00
67942;SHT31;54731;42.600;23.476;2022-11-11T04:08:03;9.44;84.12
67942;SHT31;54731;42.600;23.476;2022-11-11T04:10:29;9.44;84.29
67942;SHT31;54731;42.600;23.476;2022-11-11T04:12:55;9.44;84.31
67942;SHT31;54731;42.600;23.476;2022-11-11T04:15:21;9.48;84.35
67942;SHT31;54731;42.600;23.476;2022-11-11T04:17:46;9.51;84.51
67942;SHT31;54731;42.600;23.476;2022-11-11T04:20:12;9.54;84.62
67942;SHT31;54731;42.600;23.476;2022-11-11T04:22:40;9.55;84.69
67942;SHT31;54731;42.600;23.476;2022-11-11T04:25:06;9.55;84.80
67942;SHT31;54731;42.600;23.476;2022-11-11T04:27:31;9.55;84.77
67942;SHT31;54731;42.600;23.476;2022-11-11T04:29:57;9.61;84.89
67942;SHT31;54731;42.600;23.476;2022-11-11T04:32:22;9.62;85.00
67942;SHT31;54731;42.600;23.476;2022-11-11T04:34:52;9.65;84.84
67942;SHT31;54731;42.600;23.476;2022-11-11T04:37:18;9.68;84.77
67942;SHT31;54731;42.600;23.476;2022-11-11T04:39:44;9.65;84.89
67942;SHT31;54731;42.600;23.476;2022-11-11T04:42:09;9.63;84.80
67942;SHT31;54731;42.600;23.476;2022-11-11T04:44:35;9.69;84.89
67942;SHT31;54731;42.600;23.476;2022-11-11T04:47:00;9.65;84.82
67942;SHT31;54731;42.600;23.476;2022-11-11T04:49:25;9.67;84.74
67942;SHT31;54731;42.600;23.476;2022-11-11T04:51:50;9.67;84.88
67942;SHT31;54731;42.600;23.476;2022-11-11T04:54:16;9.69;84.73
67942;SHT31;54731;42.600;23.476;2022-11-11T04:56:41;9.71;84.65
67942;SHT31;54731;42.600;23.476;2022-11-11T04:59:06;9.74;84.53
67942;SHT31;54731;42.600;23.476;2022-11-11T05:01:32;9.69;84.54
67942;SHT31;54731;42.600;23.476;2022-11-11T05:03:57;9.63;84.73
67942;SHT31;54731;42.600;23.476;2022-11-11T05:06:22;9.67;84.62
67942;SHT31;54731;42.600;23.476;2022-11-11T05:08:48;9.65;84.65
67942;SHT31;54731;42.600;23.476;2022-11-11T05:11:14;9.65;84.55
67942;SHT31;54731;42.600;23.476;2022-11-11T05:13:39;9.65;84.55
67942;SHT31;54731;42.600;23.476;2022-11-11T05:16:04;9.65;84.35
67942;SHT31;54731;42.600;23.476;2022-11-11T05:18:30;9.69;84.37
67942;SHT31;54731;42.600;23.476;2022-11-11T05:20:55;9.63;84.37
67942;SHT31;54731;42.600;23.476;2022-11-11T05:23:20;9.63;84.39
67942;SHT31;54731;42.600;23.476;2022-11-11T05:25:46;9.68;84.28
67942;SHT31;54731;42.600;23.476;2022-11-11T05:28:11;9.69;84.14
67942;SHT31;54731;42.600;23.476;2022-11-11T05:30:36;9.78;83.93
67942;SHT31;54731;42.600;23.476;2022-11-11T05:33:02;9.79;83.75
67942;SHT31;54731;42.600;23.476;2022-11-11T05:35:27;9.77;83.85
67942;SHT31;54731;42.600;23.476;2022-11-11T05:37:52;9.83;83.61
67942;SHT31;54731;42.600;23.476;2022-11-11T05:40:17;9.78;83.66
67942;SHT31;54731;42.600;23.476;2022-11-11T05:42:43;9.83;83.21
67942;SHT31;54731;42.600;23.476;2022-11-11T05:45:08;9.81;83.34
67942;SHT31;54731;42.600;23.476;2022-11-11T05:47:34;9.82;83.27
67942;SHT31;54731;42.600;23.476;2022-11-11T05:49:59;9.83;83.17
67942;SHT31;54731;42.600;23.476;2022-11-11T05:52:24;9.92;83.24
67942;SHT31;54731;42.600;23.476;2022-11-11T05:54:50;9.93;82.86
67942;SHT31;54731;42.600;23.476;2022-11-11T05:57:15;10.02;82.69
67942;SHT31;54731;42.600;23.476;2022-11-11T05:59:40;10.03;82.13
67942;SHT31;54731;42.600;23.476;2022-11-11T06:02:06;10.02;82.47
67942;SHT31;54731;42.600;23.476;2022-11-11T06:04:31;10.09;81.88
67942;SHT31;54731;42.600;23.476;2022-11-11T06:06:56;9.89;82.31
67942;SHT31;54731;42.600;23.476;2022-11-11T06:09:22;9.88;82.81
67942;SHT31;54731;42.600;23.476;2022-11-11T06:11:47;9.93;82.31
67942;SHT31;54731;42.600;23.476;2022-11-11T06:14:12;10.03;82.40
67942;SHT31;54731;42.600;23.476;2022-11-11T06:16:38;10.16;82.38
67942;SHT31;54731;42.600;23.476;2022-11-11T06:19:03;10.14;81.87
67942;SHT31;54731;42.600;23.476;2022-11-11T06:21:31;10.14;81.41
67942;SHT31;54731;42.600;23.476;2022-11-11T06:23:57;10.14;81.40
67942;SHT31;54731;42.600;23.476;2022-11-11T06:26:22;10.12;81.42
67942;SHT31;54731;42.600;23.476;2022-11-11T06:28:52;10.03;81.35
67942;SHT31;54731;42.600;23.476;2022-11-11T06:31:23;10.08;81.43
67942;SHT31;54731;42.600;23.476;2022-11-11T06:33:48;10.13;81.08
67942;SHT31;54731;42.600;23.476;2022-11-11T06:36:15;10.22;81.07
67942;SHT31;54731;42.600;23.476;2022-11-11T06:38:41;10.16;81.05
67942;SHT31;54731;42.600;23.476;2022-11-11T06:41:08;10.13;81.19
67942;SHT31;54731;42.600;23.476;2022-11-11T06:43:33;10.08;81.19
67942;SHT31;54731;42.600;23.476;2022-11-11T06:45:59;10.09;81.44
67942;SHT31;54731;42.600;23.476;2022-11-11T06:48:25;10.16;81.94
67942;SHT31;54731;42.600;23.476;2022-11-11T06:50:51;10.17;81.44
67942;SHT31;54731;42.600;23.476;2022-11-11T06:53:18;10.19;81.36
67942;SHT31;54731;42.600;23.476;2022-11-11T06:55:44;10.17;81.55
67942;SHT31;54731;42.600;23.476;2022-11-11T06:58:11;10.36;83.37
67942;SHT31;54731;42.600;23.476;2022-11-11T07:00:38;10.33;81.50
67942;SHT31;54731;42.600;23.476;2022-11-11T07:03:06;10.42;82.15
67942;SHT31;54731;42.600;23.476;2022-11-11T07:05:32;10.49;82.31
67942;SHT31;54731;42.600;23.476;2022-11-11T07:08:06;10.39;81.48
67942;SHT31;54731;42.600;23.476;2022-11-11T07:10:32;10.49;81.57
67942;SHT31;54731;42.600;23.476;2022-11-11T07:12:58;10.44;81.23
67942;SHT31;54731;42.600;23.476;2022-11-11T07:15:24;10.56;81.32
67942;SHT31;54731;42.600;23.476;2022-11-11T07:17:49;10.66;81.37
67942;SHT31;54731;42.600;23.476;2022-11-11T07:20:15;10.81;80.68
67942;SHT31;54731;42.600;23.476;2022-11-11T07:22:40;10.85;79.96
67942;SHT31;54731;42.600;23.476;2022-11-11T07:25:06;10.68;79.36
67942;SHT31;54731;42.600;23.476;2022-11-11T07:27:31;10.74;80.59
67942;SHT31;54731;42.600;23.476;2022-11-11T07:29:56;10.73;80.23
67942;SHT31;54731;42.600;23.476;2022-11-11T07:32:22;10.78;80.84
67942;SHT31;54731;42.600;23.476;2022-11-11T07:34:47;10.85;80.07
67942;SHT31;54731;42.600;23.476;2022-11-11T07:37:12;10.67;79.61
67942;SHT31;54731;42.600;23.476;2022-11-11T07:39:38;10.47;81.05
67942;SHT31;54731;42.600;23.476;2022-11-11T07:42:03;10.34;81.27
67942;SHT31;54731;42.600;23.476;2022-11-11T07:44:28;10.30;81.51
67942;SHT31;54731;42.600;23.476;2022-11-11T07:46:54;10.32;81.34
67942;SHT31;54731;42.600;23.476;2022-11-11T07:49:19;10.05;81.91
67942;SHT31;54731;42.600;23.476;2022-11-11T07:51:44;9.96;82.24
67942;SHT31;54731;42.600;23.476;2022-11-11T07:54:09;10.12;82.32
67942;SHT31;54731;42.600;23.476;2022-11-11T07:56:35;10.10;82.00
67942;SHT31;54731;42.600;23.476;2022-11-11T07:59:00;10.20;82.56
67942;SHT31;54731;42.600;23.476;2022-11-11T08:01:26;10.13;81.67
67942;SHT31;54731;42.600;23.476;2022-11-11T08:03:51;9.95;82.38
67942;SHT31;54731;42.600;23.476;2022-11-11T08:06:20;9.93;82.40
67942;SHT31;54731;42.600;23.476;2022-11-11T08:08:47;9.86;82.71
67942;SHT31;54731;42.600;23.476;2022-11-11T08:11:12;9.85;82.81
67942;SHT31;54731;42.600;23.476;2022-11-11T08:13:38;9.89;82.68
67942;SHT31;54731;42.600;23.476;2022-11-11T08:16:03;9.91;82.56
67942;SHT31;54731;42.600;23.476;2022-11-11T08:18:29;9.89;82.46
67942;SHT31;54731;42.600;23.476;2022-11-11T08:20:54;9.96;82.46
67942;SHT31;54731;42.600;23.476;2022-11-11T08:23:19;9.89;82.17
67942;SHT31;54731;42.600;23.476;2022-11-11T08:25:45;9.85;82.60
67942;SHT31;54731;42.600;23.476;2022-11-11T08:28:10;9.72;82.35
67942;SHT31;54731;42.600;23.476;2022-11-11T08:30:35;9.69;82.55
67942;SHT31;54731;42.600;23.476;2022-11-11T08:33:03;9.79;82.38
67942;SHT31;54731;42.600;23.476;2022-11-11T08:35:29;9.77;82.14
67942;SHT31;54731;42.600;23.476;2022-11-11T08:37:55;9.67;82.95
67942;SHT31;54731;42.600;23.476;2022-11-11T08:40:21;9.72;82.56
67942;SHT31;54731;42.600;23.476;2022-11-11T08:42:46;9.72;82.73
67942;SHT31;54731;42.600;23.476;2022-11-11T08:45:12;9.78;82.09
67942;SHT31;54731;42.600;23.476;2022-11-11T08:47:38;9.79;82.09
67942;SHT31;54731;42.600;23.476;2022-11-11T08:50:05;9.86;82.37
67942;SHT31;54731;42.600;23.476;2022-11-11T08:52:30;9.99;82.31
67942;SHT31;54731;42.600;23.476;2022-11-11T08:54:56;9.81;81.91
67942;SHT31;54731;42.600;23.476;2022-11-11T08:57:21;9.83;82.05
67942;SHT31;54731;42.600;23.476;2022-11-11T08:59:46;9.89;81.83
67942;SHT31;54731;42.600;23.476;2022-11-11T09:02:12;10.02;81.19
67942;SHT31;54731;42.600;23.476;2022-11-11T09:04:39;10.05;81.08
67942;SHT31;54731;42.600;23.476;2022-11-11T09:07:06;10.13;81.10
67942;SHT31;54731;42.600;23.476;2022-11-11T09:09:32;10.26;80.57
67942;SHT31;54731;42.600;23.476;2022-11-11T09:11:57;10.36;80.33
67942;SHT31;54731;42.600;23.476;2022-11-11T09:14:22;10.36;79.71
67942;SHT31;54731;42.600;23.476;2022-11-11T09:16:48;10.44;80.24
67942;SHT31;54731;42.600;23.476;2022-11-11T09:19:13;10.46;79.12
67942;SHT31;54731;42.600;23.476;2022-11-11T09:21:39;10.52;79.48
67942;SHT31;54731;42.600;23.476;2022-11-11T09:24:04;10.63;78.67
67942;SHT31;54731;42.600;23.476;2022-11-11T09:26:30;10.73;78.10
67942;SHT31;54731;42.600;23.476;2022-11-11T09:28:55;10.64;78.59
67942;SHT31;54731;42.600;23.476;2022-11-11T09:31:20;10.75;78.23
67942;SHT31;54731;42.600;23.476;2022-11-11T09:33:45;10.85;78.15
67942;SHT31;54731;42.600;23.476;2022-11-11T09:36:11;10.95;77.94
67942;SHT31;54731;42.600;23.476;2022-11-11T09:38:36;11.04;76.75
67942;SHT31;54731;42.600;23.476;2022-11-11T09:41:08;10.94;77.01
67942;SHT31;54731;42.600;23.476;2022-11-11T09:43:55;10.97;76.51
67942;SHT31;54731;42.600;23.476;2022-11-11T09:49:17;11.15;76.17
67942;SHT31;54731;42.600;23.476;2022-11-11T09:51:53;11.08;75.95
67942;SHT31;54731;42.600;23.476;2022-11-11T09:54:33;11.17;75.95
67942;SHT31;54731;42.600;23.476;2022-11-11T09:57:02;11.12;75.61
67942;SHT31;54731;42.600;23.476;2022-11-11T09:59:46;11.25;75.90
67942;SHT31;54731;42.600;23.476;2022-11-11T10:02:29;11.31;74.76
67942;SHT31;54731;42.600;23.476;2022-11-11T10:05:08;11.17;74.51
67942;SHT31;54731;42.600;23.476;2022-11-11T10:07:43;11.24;74.62
67942;SHT31;54731;42.600;23.476;2022-11-11T10:10:17;11.25;74.75
67942;SHT31;54731;42.600;23.476;2022-11-11T10:12:55;11.36;74.00
67942;SHT31;54731;42.600;23.476;2022-11-11T10:15:22;11.22;74.07
67942;SHT31;54731;42.600;23.476;2022-11-11T10:20:28;11.25;73.95
67942;SHT31;54731;42.600;23.476;2022-11-11T10:25:33;11.11;74.31
67942;SHT31;54731;42.600;23.476;2022-11-11T10:28:00;11.03;75.08
67942;SHT31;54731;42.600;23.476;2022-11-11T10:30:31;11.12;75.20
67942;SHT31;54731;42.600;23.476;2022-11-11T10:33:01;11.12;74.69
67942;SHT31;54731;42.600;23.476;2022-11-11T10:35:31;11.19;74.97
67942;SHT31;54731;42.600;23.476;2022-11-11T10:40:47;11.19;73.96
67942;SHT31;54731;42.600;23.476;2022-11-11T10:43:24;11.04;73.56
67942;SHT31;54731;42.600;23.476;2022-11-11T10:48:53;11.11;74.08
67942;SHT31;54731;42.600;23.476;2022-11-11T10:51:16;11.15;74.05
67942;SHT31;54731;42.600;23.476;2022-11-11T10:53:52;11.27;73.73
67942;SHT31;54731;42.600;23.476;2022-11-11T11:01:35;11.43;73.79
67942;SHT31;54731;42.600;23.476;2022-11-11T11:07:05;11.27;73.54
67942;SHT31;54731;42.600;23.476;2022-11-11T11:10:08;11.31;73.93
67942;SHT31;54731;42.600;23.476;2022-11-11T11:13:02;11.10;72.93
67942;SHT31;54731;42.600;23.476;2022-11-11T11:15:30;11.08;73.73
67942;SHT31;54731;42.600;23.476;2022-11-11T11:18:12;11.10;74.21
67942;SHT31;54731;42.600;23.476;2022-11-11T11:20:37;11.19;73.81
67942;SHT31;54731;42.600;23.476;2022-11-11T11:23:03;11.18;72.81
67942;SHT31;54731;42.600;23.476;2022-11-11T11:25:30;11.21;72.42
67942;SHT31;54731;42.600;23.476;2022-11-11T11:28:08;11.25;72.75
67942;SHT31;54731;42.600;23.476;2022-11-11T11:30:33;11.22;72.17
67942;SHT31;54731;42.600;23.476;2022-11-11T11:33:01;11.28;71.47
67942;SHT31;54731;42.600;23.476;2022-11-11T11:38:01;11.28;71.01
67942;SHT31;54731;42.600;23.476;2022-11-11T11:40:47;11.31;70.15
67942;SHT31;54731;42.600;23.476;2022-11-11T11:45:59;11.29;69.88
67942;SHT31;54731;42.600;23.476;2022-11-11T11:48:55;11.35;70.45
67942;SHT31;54731;42.600;23.476;2022-11-11T11:51:32;11.51;69.35
67942;SHT31;54731;42.600;23.476;2022-11-11T11:56:49;11.59;69.10
67942;SHT31;54731;42.600;23.476;2022-11-11T11:59:20;11.62;68.63
67942;SHT31;54731;42.600;23.476;2022-11-11T12:02:13;11.66;68.66
67942;SHT31;54731;42.600;23.476;2022-11-11T12:16:24;11.55;68.27
67942;SHT31;54731;42.600;23.476;2022-11-11T12:19:10;11.52;67.89
67942;SHT31;54731;42.600;23.476;2022-11-11T12:24:34;11.36;67.78
67942;SHT31;54731;42.600;23.476;2022-11-11T12:30:01;11.31;67.44
67942;SHT31;54731;42.600;23.476;2022-11-11T12:32:43;11.35;67.50
67942;SHT31;54731;42.600;23.476;2022-11-11T12:38:45;11.38;67.14
67942;SHT31;54731;42.600;23.476;2022-11-11T12:40:57;11.38;66.92
67942;SHT31;54731;42.600;23.476;2022-11-11T12:51:39;11.29;67.30
67942;SHT31;54731;42.600;23.476;2022-11-11T12:54:26;11.39;66.85
67942;SHT31;54731;42.600;23.476;2022-11-11T12:57:16;11.40;66.33
67942;SHT31;54731;42.600;23.476;2022-11-11T13:02:58;11.36;66.59
67942;SHT31;54731;42.600;23.476;2022-11-11T13:05:37;11.34;66.80
67942;SHT31;54731;42.600;23.476;2022-11-11T13:16:54;11.39;66.55
67942;SHT31;54731;42.600;23.476;2022-11-11T13:19:36;11.38;66.86
67942;SHT31;54731;42.600;23.476;2022-11-11T13:24:35;11.38;66.70
67942;SHT31;54731;42.600;23.476;2022-11-11T13:27:57;11.29;67.32
67942;SHT31;54731;42.600;23.476;2022-11-11T13:32:47;11.15;68.50
67942;SHT31;54731;42.600;23.476;2022-11-11T13:35:31;11.19;68.63
67942;SHT31;54731;42.600;23.476;2022-11-11T13:37:58;11.14;68.84
67942;SHT31;54731;42.600;23.476;2022-11-11T13:42:54;11.18;68.49
67942;SHT31;54731;42.600;23.476;2022-11-11T13:45:29;11.19;68.59
67942;SHT31;54731;42.600;23.476;2022-11-11T13:47:57;11.15;68.75
67942;SHT31;54731;42.600;23.476;2022-11-11T13:50:32;11.05;68.79
67942;SHT31;54731;42.600;23.476;2022-11-11T13:53:13;11.17;68.45
67942;SHT31;54731;42.600;23.476;2022-11-11T13:55:42;11.14;68.47
67942;SHT31;54731;42.600;23.476;2022-11-11T13:58:28;11.07;68.18
67942;SHT31;54731;42.600;23.476;2022-11-11T14:00:59;11.11;68.14
67942;SHT31;54731;42.600;23.476;2022-11-11T14:13:55;11.01;68.26
67942;SHT31;54731;42.600;23.476;2022-11-11T14:18:58;10.98;68.38
67942;SHT31;54731;42.600;23.476;2022-11-11T14:21:49;10.98;68.57
67942;SHT31;54731;42.600;23.476;2022-11-11T14:26:59;10.81;68.96
67942;SHT31;54731;42.600;23.476;2022-11-11T14:29:30;10.80;69.30
67942;SHT31;54731;42.600;23.476;2022-11-11T14:34:47;10.75;69.59
67942;SHT31;54731;42.600;23.476;2022-11-11T14:39:47;10.80;69.89
67942;SHT31;54731;42.600;23.476;2022-11-11T14:44:58;10.88;69.93
67942;SHT31;54731;42.600;23.476;2022-11-11T14:49:55;10.91;70.41
67942;SHT31;54731;42.600;23.476;2022-11-11T14:52:40;10.84;70.79
67942;SHT31;54731;42.600;23.476;2022-11-11T15:02:54;10.71;71.33
67942;SHT31;54731;42.600;23.476;2022-11-11T15:05:48;10.63;71.40
67942;SHT31;54731;42.600;23.476;2022-11-11T15:11:28;10.63;71.46
67942;SHT31;54731;42.600;23.476;2022-11-11T15:27:28;10.53;71.94
67942;SHT31;54731;42.600;23.476;2022-11-11T15:30:04;10.57;71.89
67942;SHT31;54731;42.600;23.476;2022-11-11T15:37:33;10.57;71.76
67942;SHT31;54731;42.600;23.476;2022-11-11T15:39:59;10.59;71.55
67942;SHT31;54731;42.600;23.476;2022-11-11T15:42:36;10.49;71.95
67942;SHT31;54731;42.600;23.476;2022-11-11T15:45:14;10.56;71.80
67942;SHT31;54731;42.600;23.476;2022-11-11T15:47:45;10.52;71.83
67942;SHT31;54731;42.600;23.476;2022-11-11T15:50:30;10.49;72.06
67942;SHT31;54731;42.600;23.476;2022-11-11T15:52:59;10.49;72.14
67942;SHT31;54731;42.600;23.476;2022-11-11T15:55:33;10.54;71.70
67942;SHT31;54731;42.600;23.476;2022-11-11T15:58:15;10.50;72.01
67942;SHT31;54731;42.600;23.476;2022-11-11T16:00:41;10.47;71.91
67942;SHT31;54731;42.600;23.476;2022-11-11T16:03:14;10.44;72.01
67942;SHT31;54731;42.600;23.476;2022-11-11T16:05:41;10.44;72.00
67942;SHT31;54731;42.600;23.476;2022-11-11T16:08:08;10.40;72.08
67942;SHT31;54731;42.600;23.476;2022-11-11T16:10:35;10.46;72.28
67942;SHT31;54731;42.600;23.476;2022-11-11T16:15:44;10.50;71.48
67942;SHT31;54731;42.600;23.476;2022-11-11T16:18:32;10.39;71.76
67942;SHT31;54731;42.600;23.476;2022-11-11T16:21:18;10.42;71.82
67942;SHT31;54731;42.600;23.476;2022-11-11T16:23:45;10.37;72.03
67942;SHT31;54731;42.600;23.476;2022-11-11T16:26:11;10.37;71.94
67942;SHT31;54731;42.600;23.476;2022-11-11T16:28:43;10.22;72.37
67942;SHT31;54731;42.600;23.476;2022-11-11T16:37:08;10.29;72.57
67942;SHT31;54731;42.600;23.476;2022-11-11T16:39:34;10.19;73.12
67942;SHT31;54731;42.600;23.476;2022-11-11T16:42:27;10.19;73.41
67942;SHT31;54731;42.600;23.476;2022-11-11T16:45:01;10.17;73.63
67942;SHT31;54731;42.600;23.476;2022-11-11T16:52:30;10.08;74.28
67942;SHT31;54731;42.600;23.476;2022-11-11T16:55:03;10.06;74.44
67942;SHT31;54731;42.600;23.476;2022-11-11T16:57:31;10.08;74.51
67942;SHT31;54731;42.600;23.476;2022-11-11T17:00:02;10.10;74.45
67942;SHT31;54731;42.600;23.476;2022-11-11T17:02:28;10.13;74.30
67942;SHT31;54731;42.600;23.476;2022-11-11T17:04:55;10.13;73.95
67942;SHT31;54731;42.600;23.476;2022-11-11T17:07:31;10.13;73.86
67942;SHT31;54731;42.600;23.476;2022-11-11T17:10:17;10.14;73.27
67942;SHT31;54731;42.600;23.476;2022-11-11T17:12:42;10.08;73.13
67942;SHT31;54731;42.600;23.476;2022-11-11T17:15:13;10.01;73.49
67942;SHT31;54731;42.600;23.476;2022-11-11T17:17:40;9.99;73.82
67942;SHT31;54731;42.600;23.476;2022-11-11T17:20:17;9.98;73.74
67942;SHT31;54731;42.600;23.476;2022-11-11T17:22:55;10.01;73.92
67942;SHT31;54731;42.600;23.476;2022-11-11T17:25:20;10.01;74.01
67942;SHT31;54731;42.600;23.476;2022-11-11T17:27:45;9.98;73.91
67942;SHT31;54731;42.600;23.476;2022-11-11T17:30:12;9.99;73.69
67942;SHT31;54731;42.600;23.476;2022-11-11T17:32:38;9.88;73.67
67942;SHT31;54731;42.600;23.476;2022-11-11T17:35:04;9.91;73.69
67942;SHT31;54731;42.600;23.476;2022-11-11T17:37:35;9.91;73.59
67942;SHT31;54731;42.600;23.476;2022-11-11T17:40:00;9.89;73.54
67942;SHT31;54731;42.600;23.476;2022-11-11T17:42:27;9.85;73.69
67942;SHT31;54731;42.600;23.476;2022-11-11T17:44:53;9.82;73.68
67942;SHT31;54731;42.600;23.476;2022-11-11T17:47:18;9.85;73.80
67942;SHT31;54731;42.600;23.476;2022-11-11T17:49:43;9.82;73.59
67942;SHT31;54731;42.600;23.476;2022-11-11T17:52:08;9.81;73.87
67942;SHT31;54731;42.600;23.476;2022-11-11T17:54:34;9.81;73.71
67942;SHT31;54731;42.600;23.476;2022-11-11T17:56:59;9.81;73.66
67942;SHT31;54731;42.600;23.476;2022-11-11T17:59:24;9.82;73.80
67942;SHT31;54731;42.600;23.476;2022-11-11T18:01:50;9.86;73.52
67942;SHT31;54731;42.600;23.476;2022-11-11T18:04:15;9.82;73.71